sensor_id;sensor_type;location;lat;lon;timestamp;P1;durP1;ratioP1;P2;durP2;ratioP2
52031;SDS011;38044;45.148;39.604;2022-11-12T00:00:37;14.35;;;10.73;;
52031;SDS011;38044;45.148;39.604;2022-11-12T00:03:04;12.32;;;9.73;;
52031;SDS011;38044;45.148;39.604;2022-11-12T00:05:30;15.73;;;10.63;;
52031;SDS011;38044;45.148;39.604;2022-11-12T00:07:57;16.30;;;11.07;;
52031;SDS011;38044;45.148;39.604;2022-11-12T00:10:23;14.43;;;10.00;;
52031;SDS011;38044;45.148;39.604;2022-11-12T00:12:49;15.60;;;10.77;;
52031;SDS011;38044;45.148;39.604;2022-11-12T00:15:14;14.75;;;10.38;;
52031;SDS011;38044;45.148;39.604;2022-11-12T00:17:40;14.45;;;10.10;;
52031;SDS011;38044;45.148;39.604;2022-11-12T00:20:07;16.88;;;11.48;;
52031;SDS011;38044;45.148;39.604;2022-11-12T00:22:33;17.45;;;11.30;;
52031;SDS011;38044;45.148;39.604;2022-11-12T00:24:59;20.35;;;12.40;;
52031;SDS011;38044;45.148;39.604;2022-11-12T00:27:25;17.80;;;11.30;;
52031;SDS011;38044;45.148;39.604;2022-11-12T00:29:51;20.70;;;12.93;;
52031;SDS011;38044;45.148;39.604;2022-11-12T00:32:17;18.73;;;12.80;;
52031;SDS011;38044;45.148;39.604;2022-11-12T00:34:44;17.05;;;12.02;;
52031;SDS011;38044;45.148;39.604;2022-11-12T00:37:10;17.38;;;11.68;;
52031;SDS011;38044;45.148;39.604;2022-11-12T00:39:36;18.70;;;11.90;;
52031;SDS011;38044;45.148;39.604;2022-11-12T00:42:02;19.27;;;12.27;;
52031;SDS011;38044;45.148;39.604;2022-11-12T00:44:28;18.08;;;10.90;;
52031;SDS011;38044;45.148;39.604;2022-11-12T00:46:54;18.10;;;11.25;;
52031;SDS011;38044;45.148;39.604;2022-11-12T00:49:21;17.80;;;11.73;;
52031;SDS011;38044;45.148;39.604;2022-11-12T00:51:47;18.02;;;11.68;;
52031;SDS011;38044;45.148;39.604;2022-11-12T00:54:13;18.85;;;11.98;;
52031;SDS011;38044;45.148;39.604;2022-11-12T00:56:39;22.48;;;12.60;;
52031;SDS011;38044;45.148;39.604;2022-11-12T00:59:05;19.17;;;12.45;;
52031;SDS011;38044;45.148;39.604;2022-11-12T01:01:31;18.95;;;12.52;;
52031;SDS011;38044;45.148;39.604;2022-11-12T01:03:57;21.92;;;13.73;;
52031;SDS011;38044;45.148;39.604;2022-11-12T01:06:24;25.63;;;14.25;;
52031;SDS011;38044;45.148;39.604;2022-11-12T01:08:51;26.45;;;15.10;;
52031;SDS011;38044;45.148;39.604;2022-11-12T01:11:20;22.90;;;13.63;;
52031;SDS011;38044;45.148;39.604;2022-11-12T01:13:52;27.67;;;15.65;;
52031;SDS011;38044;45.148;39.604;2022-11-12T01:16:24;23.67;;;15.25;;
52031;SDS011;38044;45.148;39.604;2022-11-12T01:18:52;25.60;;;15.13;;
52031;SDS011;38044;45.148;39.604;2022-11-12T01:21:20;26.25;;;16.08;;
52031;SDS011;38044;45.148;39.604;2022-11-12T01:23:47;23.42;;;15.20;;
52031;SDS011;38044;45.148;39.604;2022-11-12T01:26:14;27.25;;;14.82;;
52031;SDS011;38044;45.148;39.604;2022-11-12T01:28:42;24.42;;;15.00;;
52031;SDS011;38044;45.148;39.604;2022-11-12T01:33:37;22.00;;;14.23;;
52031;SDS011;38044;45.148;39.604;2022-11-12T01:36:03;18.70;;;13.27;;
52031;SDS011;38044;45.148;39.604;2022-11-12T01:38:34;20.63;;;12.30;;
52031;SDS011;38044;45.148;39.604;2022-11-12T01:41:00;19.70;;;12.98;;
52031;SDS011;38044;45.148;39.604;2022-11-12T01:43:27;18.65;;;11.15;;
52031;SDS011;38044;45.148;39.604;2022-11-12T01:45:53;18.95;;;12.68;;
52031;SDS011;38044;45.148;39.604;2022-11-12T01:48:25;19.27;;;12.35;;
52031;SDS011;38044;45.148;39.604;2022-11-12T01:50:52;20.60;;;13.23;;
52031;SDS011;38044;45.148;39.604;2022-11-12T01:53:19;18.98;;;12.15;;
52031;SDS011;38044;45.148;39.604;2022-11-12T01:55:49;20.15;;;12.57;;
52031;SDS011;38044;45.148;39.604;2022-11-12T01:58:17;19.88;;;13.25;;
52031;SDS011;38044;45.148;39.604;2022-11-12T02:00:46;19.95;;;12.15;;
52031;SDS011;38044;45.148;39.604;2022-11-12T02:03:19;24.17;;;13.10;;
52031;SDS011;38044;45.148;39.604;2022-11-12T02:05:48;22.25;;;13.32;;
52031;SDS011;38044;45.148;39.604;2022-11-12T02:08:19;20.35;;;12.75;;
52031;SDS011;38044;45.148;39.604;2022-11-12T02:10:46;21.40;;;12.02;;
52031;SDS011;38044;45.148;39.604;2022-11-12T02:13:13;20.92;;;13.23;;
52031;SDS011;38044;45.148;39.604;2022-11-12T02:15:58;19.67;;;12.18;;
52031;SDS011;38044;45.148;39.604;2022-11-12T02:18:24;18.27;;;11.98;;
52031;SDS011;38044;45.148;39.604;2022-11-12T02:20:53;21.90;;;12.57;;
52031;SDS011;38044;45.148;39.604;2022-11-12T02:23:21;21.48;;;12.95;;
52031;SDS011;38044;45.148;39.604;2022-11-12T02:25:47;20.10;;;12.45;;
52031;SDS011;38044;45.148;39.604;2022-11-12T02:28:13;18.33;;;10.32;;
52031;SDS011;38044;45.148;39.604;2022-11-12T02:30:44;16.70;;;11.35;;
52031;SDS011;38044;45.148;39.604;2022-11-12T02:33:12;17.60;;;11.18;;
52031;SDS011;38044;45.148;39.604;2022-11-12T02:35:38;18.15;;;11.52;;
52031;SDS011;38044;45.148;39.604;2022-11-12T02:38:05;19.58;;;12.30;;
52031;SDS011;38044;45.148;39.604;2022-11-12T02:40:32;16.25;;;10.80;;
52031;SDS011;38044;45.148;39.604;2022-11-12T02:42:58;18.52;;;11.80;;
52031;SDS011;38044;45.148;39.604;2022-11-12T02:45:24;19.02;;;11.93;;
52031;SDS011;38044;45.148;39.604;2022-11-12T02:47:51;17.80;;;11.68;;
52031;SDS011;38044;45.148;39.604;2022-11-12T02:50:17;18.10;;;11.25;;
52031;SDS011;38044;45.148;39.604;2022-11-12T02:52:43;21.17;;;12.77;;
52031;SDS011;38044;45.148;39.604;2022-11-12T02:55:10;19.33;;;12.27;;
52031;SDS011;38044;45.148;39.604;2022-11-12T02:57:37;21.65;;;12.43;;
52031;SDS011;38044;45.148;39.604;2022-11-12T03:00:04;18.63;;;11.77;;
52031;SDS011;38044;45.148;39.604;2022-11-12T03:02:31;21.38;;;12.60;;
52031;SDS011;38044;45.148;39.604;2022-11-12T03:04:57;21.27;;;12.95;;
52031;SDS011;38044;45.148;39.604;2022-11-12T03:07:23;19.83;;;12.18;;
52031;SDS011;38044;45.148;39.604;2022-11-12T03:09:49;23.75;;;14.23;;
52031;SDS011;38044;45.148;39.604;2022-11-12T03:12:15;22.23;;;14.15;;
52031;SDS011;38044;45.148;39.604;2022-11-12T03:14:41;21.52;;;14.10;;
52031;SDS011;38044;45.148;39.604;2022-11-12T03:17:06;21.63;;;14.02;;
52031;SDS011;38044;45.148;39.604;2022-11-12T03:19:32;21.63;;;13.52;;
52031;SDS011;38044;45.148;39.604;2022-11-12T03:21:58;25.75;;;15.05;;
52031;SDS011;38044;45.148;39.604;2022-11-12T03:24:24;25.48;;;14.68;;
52031;SDS011;38044;45.148;39.604;2022-11-12T03:26:49;25.15;;;15.70;;
52031;SDS011;38044;45.148;39.604;2022-11-12T03:29:15;23.08;;;15.32;;
52031;SDS011;38044;45.148;39.604;2022-11-12T03:31:41;28.02;;;16.42;;
52031;SDS011;38044;45.148;39.604;2022-11-12T03:34:07;27.55;;;16.30;;
52031;SDS011;38044;45.148;39.604;2022-11-12T03:36:33;29.17;;;16.42;;
52031;SDS011;38044;45.148;39.604;2022-11-12T03:38:59;29.95;;;17.17;;
52031;SDS011;38044;45.148;39.604;2022-11-12T03:41:24;28.85;;;17.08;;
52031;SDS011;38044;45.148;39.604;2022-11-12T03:43:50;30.42;;;17.58;;
52031;SDS011;38044;45.148;39.604;2022-11-12T03:46:16;30.77;;;18.17;;
52031;SDS011;38044;45.148;39.604;2022-11-12T03:48:42;30.00;;;17.58;;
52031;SDS011;38044;45.148;39.604;2022-11-12T03:51:08;34.05;;;18.70;;
52031;SDS011;38044;45.148;39.604;2022-11-12T03:53:36;31.08;;;18.02;;
52031;SDS011;38044;45.148;39.604;2022-11-12T03:56:02;28.95;;;17.35;;
52031;SDS011;38044;45.148;39.604;2022-11-12T03:58:28;28.48;;;16.90;;
52031;SDS011;38044;45.148;39.604;2022-11-12T04:00:53;27.02;;;16.88;;
52031;SDS011;38044;45.148;39.604;2022-11-12T04:03:19;25.52;;;15.20;;
52031;SDS011;38044;45.148;39.604;2022-11-12T04:05:45;26.63;;;16.00;;
52031;SDS011;38044;45.148;39.604;2022-11-12T04:08:29;25.73;;;16.13;;
52031;SDS011;38044;45.148;39.604;2022-11-12T04:11:04;25.15;;;15.52;;
52031;SDS011;38044;45.148;39.604;2022-11-12T04:13:33;24.67;;;15.23;;
52031;SDS011;38044;45.148;39.604;2022-11-12T04:16:09;22.00;;;14.68;;
52031;SDS011;38044;45.148;39.604;2022-11-12T04:18:58;25.05;;;16.27;;
52031;SDS011;38044;45.148;39.604;2022-11-12T04:21:46;26.92;;;15.32;;
52031;SDS011;38044;45.148;39.604;2022-11-12T04:24:19;26.10;;;15.20;;
52031;SDS011;38044;45.148;39.604;2022-11-12T04:27:05;24.83;;;15.63;;
52031;SDS011;38044;45.148;39.604;2022-11-12T04:29:32;22.33;;;14.43;;
52031;SDS011;38044;45.148;39.604;2022-11-12T04:32:16;25.00;;;15.35;;
52031;SDS011;38044;45.148;39.604;2022-11-12T04:34:42;30.50;;;17.27;;
52031;SDS011;38044;45.148;39.604;2022-11-12T04:37:08;27.83;;;19.33;;
52031;SDS011;38044;45.148;39.604;2022-11-12T04:39:34;32.15;;;19.60;;
52031;SDS011;38044;45.148;39.604;2022-11-12T04:42:00;30.30;;;18.20;;
52031;SDS011;38044;45.148;39.604;2022-11-12T04:44:44;28.52;;;18.63;;
52031;SDS011;38044;45.148;39.604;2022-11-12T04:47:33;27.63;;;17.42;;
52031;SDS011;38044;45.148;39.604;2022-11-12T04:50:06;27.08;;;17.42;;
52031;SDS011;38044;45.148;39.604;2022-11-12T04:52:37;29.90;;;17.67;;
52031;SDS011;38044;45.148;39.604;2022-11-12T04:55:03;31.52;;;17.92;;
52031;SDS011;38044;45.148;39.604;2022-11-12T04:57:30;26.52;;;17.67;;
52031;SDS011;38044;45.148;39.604;2022-11-12T04:59:56;29.98;;;17.70;;
52031;SDS011;38044;45.148;39.604;2022-11-12T05:02:21;29.27;;;17.10;;
52031;SDS011;38044;45.148;39.604;2022-11-12T05:04:47;23.88;;;15.80;;
52031;SDS011;38044;45.148;39.604;2022-11-12T05:07:13;24.65;;;15.52;;
52031;SDS011;38044;45.148;39.604;2022-11-12T05:09:40;27.33;;;15.95;;
52031;SDS011;38044;45.148;39.604;2022-11-12T05:12:08;24.73;;;15.27;;
52031;SDS011;38044;45.148;39.604;2022-11-12T05:14:34;26.10;;;15.75;;
52031;SDS011;38044;45.148;39.604;2022-11-12T05:17:00;25.55;;;15.82;;
52031;SDS011;38044;45.148;39.604;2022-11-12T05:19:26;27.05;;;15.63;;
52031;SDS011;38044;45.148;39.604;2022-11-12T05:21:53;27.48;;;17.92;;
52031;SDS011;38044;45.148;39.604;2022-11-12T05:24:33;26.17;;;15.57;;
52031;SDS011;38044;45.148;39.604;2022-11-12T05:27:08;27.58;;;16.50;;
52031;SDS011;38044;45.148;39.604;2022-11-12T05:29:38;26.67;;;15.35;;
52031;SDS011;38044;45.148;39.604;2022-11-12T05:32:05;24.88;;;15.65;;
52031;SDS011;38044;45.148;39.604;2022-11-12T05:34:32;28.02;;;16.33;;
52031;SDS011;38044;45.148;39.604;2022-11-12T05:36:58;25.85;;;16.05;;
52031;SDS011;38044;45.148;39.604;2022-11-12T05:39:25;26.73;;;17.05;;
52031;SDS011;38044;45.148;39.604;2022-11-12T05:41:51;27.10;;;16.67;;
52031;SDS011;38044;45.148;39.604;2022-11-12T05:44:17;26.90;;;15.98;;
52031;SDS011;38044;45.148;39.604;2022-11-12T05:46:43;27.70;;;17.17;;
52031;SDS011;38044;45.148;39.604;2022-11-12T05:49:10;29.85;;;17.60;;
52031;SDS011;38044;45.148;39.604;2022-11-12T05:51:36;29.25;;;17.67;;
52031;SDS011;38044;45.148;39.604;2022-11-12T05:54:02;30.05;;;18.00;;
52031;SDS011;38044;45.148;39.604;2022-11-12T05:56:29;28.67;;;17.00;;
52031;SDS011;38044;45.148;39.604;2022-11-12T05:58:55;31.85;;;18.25;;
52031;SDS011;38044;45.148;39.604;2022-11-12T06:01:21;31.02;;;19.98;;
52031;SDS011;38044;45.148;39.604;2022-11-12T06:03:47;29.58;;;16.40;;
52031;SDS011;38044;45.148;39.604;2022-11-12T06:06:13;26.38;;;16.30;;
52031;SDS011;38044;45.148;39.604;2022-11-12T06:08:39;29.00;;;16.13;;
52031;SDS011;38044;45.148;39.604;2022-11-12T06:11:05;25.25;;;15.68;;
52031;SDS011;38044;45.148;39.604;2022-11-12T06:13:31;26.80;;;15.88;;
52031;SDS011;38044;45.148;39.604;2022-11-12T06:15:56;25.75;;;15.07;;
52031;SDS011;38044;45.148;39.604;2022-11-12T06:18:23;26.80;;;16.85;;
52031;SDS011;38044;45.148;39.604;2022-11-12T06:20:49;29.40;;;16.10;;
52031;SDS011;38044;45.148;39.604;2022-11-12T06:23:33;28.02;;;16.02;;
52031;SDS011;38044;45.148;39.604;2022-11-12T06:25:59;24.70;;;15.25;;
52031;SDS011;38044;45.148;39.604;2022-11-12T06:28:26;26.63;;;16.27;;
52031;SDS011;38044;45.148;39.604;2022-11-12T06:30:52;28.63;;;16.85;;
52031;SDS011;38044;45.148;39.604;2022-11-12T06:33:18;27.17;;;15.95;;
52031;SDS011;38044;45.148;39.604;2022-11-12T06:35:44;26.20;;;16.42;;
52031;SDS011;38044;45.148;39.604;2022-11-12T06:38:09;27.83;;;17.23;;
52031;SDS011;38044;45.148;39.604;2022-11-12T06:40:35;28.10;;;17.23;;
52031;SDS011;38044;45.148;39.604;2022-11-12T06:43:01;30.88;;;18.33;;
52031;SDS011;38044;45.148;39.604;2022-11-12T06:45:27;30.60;;;19.30;;
52031;SDS011;38044;45.148;39.604;2022-11-12T06:47:56;32.90;;;19.40;;
52031;SDS011;38044;45.148;39.604;2022-11-12T06:50:23;32.15;;;19.50;;
52031;SDS011;38044;45.148;39.604;2022-11-12T06:52:49;37.22;;;21.45;;
52031;SDS011;38044;45.148;39.604;2022-11-12T06:55:14;34.08;;;20.17;;
52031;SDS011;38044;45.148;39.604;2022-11-12T06:57:40;30.20;;;17.50;;
52031;SDS011;38044;45.148;39.604;2022-11-12T07:00:06;29.73;;;17.95;;
52031;SDS011;38044;45.148;39.604;2022-11-12T07:02:34;27.05;;;17.23;;
52031;SDS011;38044;45.148;39.604;2022-11-12T07:05:01;27.83;;;17.42;;
52031;SDS011;38044;45.148;39.604;2022-11-12T07:07:27;32.03;;;18.02;;
52031;SDS011;38044;45.148;39.604;2022-11-12T07:09:53;35.95;;;21.35;;
52031;SDS011;38044;45.148;39.604;2022-11-12T07:12:19;37.33;;;23.42;;
52031;SDS011;38044;45.148;39.604;2022-11-12T07:14:45;37.15;;;23.42;;
52031;SDS011;38044;45.148;39.604;2022-11-12T07:17:11;35.70;;;20.77;;
52031;SDS011;38044;45.148;39.604;2022-11-12T07:19:36;35.67;;;21.33;;
52031;SDS011;38044;45.148;39.604;2022-11-12T07:22:02;34.17;;;20.80;;
52031;SDS011;38044;45.148;39.604;2022-11-12T07:24:28;32.78;;;19.83;;
52031;SDS011;38044;45.148;39.604;2022-11-12T07:26:54;34.40;;;20.88;;
52031;SDS011;38044;45.148;39.604;2022-11-12T07:29:20;33.67;;;20.05;;
52031;SDS011;38044;45.148;39.604;2022-11-12T07:31:46;34.47;;;20.30;;
52031;SDS011;38044;45.148;39.604;2022-11-12T07:34:11;36.17;;;21.52;;
52031;SDS011;38044;45.148;39.604;2022-11-12T07:36:37;33.72;;;20.30;;
52031;SDS011;38044;45.148;39.604;2022-11-12T07:39:03;36.42;;;21.35;;
52031;SDS011;38044;45.148;39.604;2022-11-12T07:41:29;31.98;;;19.20;;
52031;SDS011;38044;45.148;39.604;2022-11-12T07:43:55;38.22;;;21.60;;
52031;SDS011;38044;45.148;39.604;2022-11-12T07:46:21;39.15;;;23.77;;
52031;SDS011;38044;45.148;39.604;2022-11-12T07:48:49;39.88;;;23.75;;
52031;SDS011;38044;45.148;39.604;2022-11-12T07:51:17;43.80;;;24.77;;
52031;SDS011;38044;45.148;39.604;2022-11-12T07:53:46;39.95;;;23.98;;
52031;SDS011;38044;45.148;39.604;2022-11-12T07:56:16;35.85;;;21.27;;
52031;SDS011;38044;45.148;39.604;2022-11-12T07:58:44;35.95;;;19.85;;
52031;SDS011;38044;45.148;39.604;2022-11-12T08:01:17;32.42;;;19.77;;
52031;SDS011;38044;45.148;39.604;2022-11-12T08:03:59;32.05;;;19.33;;
52031;SDS011;38044;45.148;39.604;2022-11-12T08:06:27;33.55;;;18.98;;
52031;SDS011;38044;45.148;39.604;2022-11-12T08:08:54;32.70;;;19.02;;
52031;SDS011;38044;45.148;39.604;2022-11-12T08:11:21;34.67;;;18.65;;
52031;SDS011;38044;45.148;39.604;2022-11-12T08:13:47;29.13;;;17.75;;
52031;SDS011;38044;45.148;39.604;2022-11-12T08:16:14;29.73;;;17.20;;
52031;SDS011;38044;45.148;39.604;2022-11-12T08:18:39;26.58;;;17.38;;
52031;SDS011;38044;45.148;39.604;2022-11-12T08:21:06;26.85;;;16.52;;
52031;SDS011;38044;45.148;39.604;2022-11-12T08:23:35;30.23;;;16.33;;
52031;SDS011;38044;45.148;39.604;2022-11-12T08:26:01;29.38;;;17.23;;
52031;SDS011;38044;45.148;39.604;2022-11-12T08:28:29;30.35;;;15.98;;
52031;SDS011;38044;45.148;39.604;2022-11-12T08:30:57;29.75;;;16.30;;
52031;SDS011;38044;45.148;39.604;2022-11-12T08:33:27;28.73;;;16.50;;
52031;SDS011;38044;45.148;39.604;2022-11-12T08:35:55;31.20;;;17.30;;
52031;SDS011;38044;45.148;39.604;2022-11-12T08:38:21;31.52;;;16.92;;
52031;SDS011;38044;45.148;39.604;2022-11-12T08:40:47;102.97;;;54.72;;
52031;SDS011;38044;45.148;39.604;2022-11-12T08:43:13;36.67;;;19.58;;
52031;SDS011;38044;45.148;39.604;2022-11-12T08:45:39;37.42;;;20.02;;
52031;SDS011;38044;45.148;39.604;2022-11-12T08:48:07;33.90;;;19.40;;
52031;SDS011;38044;45.148;39.604;2022-11-12T08:50:34;38.45;;;18.77;;
52031;SDS011;38044;45.148;39.604;2022-11-12T08:53:01;34.15;;;18.52;;
52031;SDS011;38044;45.148;39.604;2022-11-12T08:55:29;46.95;;;24.25;;
52031;SDS011;38044;45.148;39.604;2022-11-12T08:57:57;39.97;;;22.23;;
52031;SDS011;38044;45.148;39.604;2022-11-12T09:00:29;30.00;;;17.25;;
52031;SDS011;38044;45.148;39.604;2022-11-12T09:03:00;28.80;;;15.60;;
52031;SDS011;38044;45.148;39.604;2022-11-12T09:05:27;31.42;;;16.15;;
52031;SDS011;38044;45.148;39.604;2022-11-12T09:08:00;46.05;;;23.52;;
52031;SDS011;38044;45.148;39.604;2022-11-12T09:10:31;44.20;;;23.60;;
52031;SDS011;38044;45.148;39.604;2022-11-12T09:12:57;34.28;;;19.98;;
52031;SDS011;38044;45.148;39.604;2022-11-12T09:15:23;71.70;;;35.30;;
52031;SDS011;38044;45.148;39.604;2022-11-12T09:20:23;57.20;;;31.43;;
52031;SDS011;38044;45.148;39.604;2022-11-12T09:22:50;45.38;;;25.55;;
52031;SDS011;38044;45.148;39.604;2022-11-12T09:25:16;41.35;;;22.38;;
52031;SDS011;38044;45.148;39.604;2022-11-12T09:27:42;36.15;;;20.13;;
52031;SDS011;38044;45.148;39.604;2022-11-12T09:30:07;52.20;;;27.92;;
52031;SDS011;38044;45.148;39.604;2022-11-12T09:32:34;64.63;;;34.05;;
52031;SDS011;38044;45.148;39.604;2022-11-12T09:34:59;41.17;;;23.52;;
52031;SDS011;38044;45.148;39.604;2022-11-12T09:37:25;40.47;;;22.83;;
52031;SDS011;38044;45.148;39.604;2022-11-12T09:39:51;41.78;;;23.23;;
52031;SDS011;38044;45.148;39.604;2022-11-12T09:42:18;37.15;;;21.40;;
52031;SDS011;38044;45.148;39.604;2022-11-12T09:44:59;41.85;;;21.98;;
52031;SDS011;38044;45.148;39.604;2022-11-12T09:47:33;44.95;;;26.58;;
52031;SDS011;38044;45.148;39.604;2022-11-12T09:52:46;42.28;;;23.25;;
52031;SDS011;38044;45.148;39.604;2022-11-12T09:55:19;40.15;;;23.02;;
52031;SDS011;38044;45.148;39.604;2022-11-12T09:57:52;44.17;;;24.10;;
52031;SDS011;38044;45.148;39.604;2022-11-12T10:00:19;44.65;;;24.45;;
52031;SDS011;38044;45.148;39.604;2022-11-12T10:02:54;39.88;;;21.55;;
52031;SDS011;38044;45.148;39.604;2022-11-12T10:05:57;46.40;;;25.60;;
52031;SDS011;38044;45.148;39.604;2022-11-12T10:14:40;42.78;;;25.50;;
52031;SDS011;38044;45.148;39.604;2022-11-12T10:17:26;54.35;;;30.23;;
52031;SDS011;38044;45.148;39.604;2022-11-12T10:20:08;65.30;;;34.72;;
52031;SDS011;38044;45.148;39.604;2022-11-12T10:25:58;45.65;;;25.60;;
52031;SDS011;38044;45.148;39.604;2022-11-12T10:30:59;50.73;;;28.13;;
52031;SDS011;38044;45.148;39.604;2022-11-12T10:33:30;58.97;;;32.22;;
52031;SDS011;38044;45.148;39.604;2022-11-12T10:36:01;60.70;;;30.45;;
52031;SDS011;38044;45.148;39.604;2022-11-12T10:38:53;59.67;;;28.55;;
52031;SDS011;38044;45.148;39.604;2022-11-12T10:41:27;47.25;;;25.35;;
52031;SDS011;38044;45.148;39.604;2022-11-12T10:43:58;42.63;;;23.80;;
52031;SDS011;38044;45.148;39.604;2022-11-12T10:49:22;45.40;;;24.02;;
52031;SDS011;38044;45.148;39.604;2022-11-12T10:51:58;40.63;;;22.65;;
52031;SDS011;38044;45.148;39.604;2022-11-12T10:56:54;38.40;;;20.42;;
52031;SDS011;38044;45.148;39.604;2022-11-12T10:59:21;35.97;;;20.55;;
52031;SDS011;38044;45.148;39.604;2022-11-12T11:01:55;39.58;;;21.88;;
52031;SDS011;38044;45.148;39.604;2022-11-12T11:07:03;41.13;;;23.02;;
52031;SDS011;38044;45.148;39.604;2022-11-12T11:09:53;40.85;;;21.88;;
52031;SDS011;38044;45.148;39.604;2022-11-12T11:12:25;40.80;;;23.00;;
52031;SDS011;38044;45.148;39.604;2022-11-12T11:15:07;36.28;;;20.60;;
52031;SDS011;38044;45.148;39.604;2022-11-12T11:17:42;47.33;;;25.40;;
52031;SDS011;38044;45.148;39.604;2022-11-12T11:20:32;47.92;;;24.73;;
52031;SDS011;38044;45.148;39.604;2022-11-12T11:23:06;38.05;;;21.50;;
52031;SDS011;38044;45.148;39.604;2022-11-12T11:25:32;32.35;;;18.67;;
52031;SDS011;38044;45.148;39.604;2022-11-12T11:28:09;36.85;;;18.70;;
52031;SDS011;38044;45.148;39.604;2022-11-12T11:33:26;33.00;;;18.52;;
52031;SDS011;38044;45.148;39.604;2022-11-12T11:35:58;33.13;;;15.75;;
52031;SDS011;38044;45.148;39.604;2022-11-12T11:38:32;28.13;;;16.05;;
52031;SDS011;38044;45.148;39.604;2022-11-12T11:57:09;43.03;;;22.73;;
52031;SDS011;38044;45.148;39.604;2022-11-12T12:00:00;37.42;;;21.27;;
52031;SDS011;38044;45.148;39.604;2022-11-12T12:08:14;46.55;;;27.23;;
52031;SDS011;38044;45.148;39.604;2022-11-12T12:10:44;45.58;;;27.27;;
52031;SDS011;38044;45.148;39.604;2022-11-12T12:16:21;40.08;;;19.85;;
52031;SDS011;38044;45.148;39.604;2022-11-12T12:21:28;38.35;;;20.95;;
52031;SDS011;38044;45.148;39.604;2022-11-12T12:26:46;34.58;;;17.85;;
52031;SDS011;38044;45.148;39.604;2022-11-12T12:31:52;39.60;;;20.23;;
52031;SDS011;38044;45.148;39.604;2022-11-12T12:34:32;35.92;;;21.10;;
52031;SDS011;38044;45.148;39.604;2022-11-12T12:37:04;42.50;;;23.13;;
52031;SDS011;38044;45.148;39.604;2022-11-12T12:39:43;38.42;;;22.90;;
52031;SDS011;38044;45.148;39.604;2022-11-12T12:42:21;39.97;;;25.00;;
52031;SDS011;38044;45.148;39.604;2022-11-12T12:44:56;47.03;;;25.10;;
52031;SDS011;38044;45.148;39.604;2022-11-12T12:47:27;45.35;;;27.90;;
52031;SDS011;38044;45.148;39.604;2022-11-12T12:49:55;48.95;;;26.25;;
52031;SDS011;38044;45.148;39.604;2022-11-12T12:52:23;40.92;;;25.80;;
52031;SDS011;38044;45.148;39.604;2022-11-12T13:00:24;43.72;;;24.48;;
52031;SDS011;38044;45.148;39.604;2022-11-12T13:02:53;44.65;;;27.10;;
52031;SDS011;38044;45.148;39.604;2022-11-12T13:05:27;45.30;;;25.30;;
52031;SDS011;38044;45.148;39.604;2022-11-12T13:08:39;43.75;;;26.95;;
52031;SDS011;38044;45.148;39.604;2022-11-12T13:10:50;46.70;;;24.88;;
52031;SDS011;38044;45.148;39.604;2022-11-12T13:13:27;54.10;;;28.77;;
52031;SDS011;38044;45.148;39.604;2022-11-12T13:16:04;62.70;;;31.63;;
52031;SDS011;38044;45.148;39.604;2022-11-12T13:21:07;87.75;;;42.65;;
52031;SDS011;38044;45.148;39.604;2022-11-12T13:23:42;143.82;;;61.15;;
52031;SDS011;38044;45.148;39.604;2022-11-12T13:26:43;335.85;;;173.90;;
52031;SDS011;38044;45.148;39.604;2022-11-12T13:43:06;89.97;;;44.03;;
52031;SDS011;38044;45.148;39.604;2022-11-12T13:48:12;85.78;;;41.25;;
52031;SDS011;38044;45.148;39.604;2022-11-12T13:50:51;90.68;;;41.55;;
52031;SDS011;38044;45.148;39.604;2022-11-12T13:53:24;86.43;;;40.80;;
52031;SDS011;38044;45.148;39.604;2022-11-12T13:55:52;120.18;;;48.70;;
52031;SDS011;38044;45.148;39.604;2022-11-12T13:58:24;114.50;;;48.03;;
52031;SDS011;38044;45.148;39.604;2022-11-12T14:00:51;86.63;;;42.75;;
52031;SDS011;38044;45.148;39.604;2022-11-12T14:03:23;65.93;;;34.10;;
52031;SDS011;38044;45.148;39.604;2022-11-12T14:05:52;52.75;;;28.98;;
52031;SDS011;38044;45.148;39.604;2022-11-12T14:08:23;59.63;;;29.45;;
52031;SDS011;38044;45.148;39.604;2022-11-12T14:13:57;58.00;;;29.67;;
52031;SDS011;38044;45.148;39.604;2022-11-12T14:16:38;82.78;;;39.28;;
52031;SDS011;38044;45.148;39.604;2022-11-12T14:22:13;91.97;;;42.35;;
52031;SDS011;38044;45.148;39.604;2022-11-12T14:24:43;120.60;;;53.88;;
52031;SDS011;38044;45.148;39.604;2022-11-12T14:27:47;105.35;;;48.15;;
52031;SDS011;38044;45.148;39.604;2022-11-12T14:32:43;107.05;;;46.35;;
52031;SDS011;38044;45.148;39.604;2022-11-12T14:35:24;96.30;;;47.78;;
52031;SDS011;38044;45.148;39.604;2022-11-12T14:38:04;82.88;;;41.63;;
52031;SDS011;38044;45.148;39.604;2022-11-12T14:40:44;76.38;;;39.88;;
52031;SDS011;38044;45.148;39.604;2022-11-12T14:43:16;75.78;;;39.50;;
52031;SDS011;38044;45.148;39.604;2022-11-12T14:45:47;71.70;;;36.33;;
52031;SDS011;38044;45.148;39.604;2022-11-12T14:48:14;96.88;;;45.58;;
52031;SDS011;38044;45.148;39.604;2022-11-12T14:50:41;125.50;;;58.42;;
52031;SDS011;38044;45.148;39.604;2022-11-12T14:55:45;64.80;;;33.15;;
52031;SDS011;38044;45.148;39.604;2022-11-12T14:58:15;55.40;;;29.67;;
52031;SDS011;38044;45.148;39.604;2022-11-12T15:00:43;59.05;;;32.10;;
52031;SDS011;38044;45.148;39.604;2022-11-12T15:03:11;51.63;;;27.95;;
52031;SDS011;38044;45.148;39.604;2022-11-12T15:05:55;52.58;;;31.48;;
52031;SDS011;38044;45.148;39.604;2022-11-12T15:08:34;50.78;;;26.50;;
52031;SDS011;38044;45.148;39.604;2022-11-12T15:11:18;53.35;;;26.02;;
52031;SDS011;38044;45.148;39.604;2022-11-12T15:13:58;51.33;;;27.20;;
52031;SDS011;38044;45.148;39.604;2022-11-12T15:16:36;46.67;;;26.13;;
52031;SDS011;38044;45.148;39.604;2022-11-12T15:19:14;42.58;;;22.65;;
52031;SDS011;38044;45.148;39.604;2022-11-12T15:21:49;42.13;;;23.27;;
52031;SDS011;38044;45.148;39.604;2022-11-12T15:26:44;41.67;;;22.77;;
52031;SDS011;38044;45.148;39.604;2022-11-12T15:29:14;45.78;;;23.92;;
52031;SDS011;38044;45.148;39.604;2022-11-12T15:31:44;48.85;;;25.63;;
52031;SDS011;38044;45.148;39.604;2022-11-12T15:37:05;53.00;;;28.25;;
52031;SDS011;38044;45.148;39.604;2022-11-12T15:39:38;47.53;;;25.33;;
52031;SDS011;38044;45.148;39.604;2022-11-12T15:44:57;48.88;;;25.67;;
52031;SDS011;38044;45.148;39.604;2022-11-12T15:47:27;47.03;;;24.35;;
52031;SDS011;38044;45.148;39.604;2022-11-12T15:49:55;43.13;;;23.55;;
52031;SDS011;38044;45.148;39.604;2022-11-12T15:52:23;46.22;;;25.20;;
52031;SDS011;38044;45.148;39.604;2022-11-12T15:54:49;46.97;;;25.65;;
52031;SDS011;38044;45.148;39.604;2022-11-12T15:57:16;43.35;;;25.92;;
52031;SDS011;38044;45.148;39.604;2022-11-12T15:59:53;46.87;;;27.63;;
52031;SDS011;38044;45.148;39.604;2022-11-12T16:02:22;50.47;;;26.20;;
52031;SDS011;38044;45.148;39.604;2022-11-12T16:04:49;48.50;;;24.50;;
52031;SDS011;38044;45.148;39.604;2022-11-12T16:07:15;46.13;;;24.77;;
52031;SDS011;38044;45.148;39.604;2022-11-12T16:09:41;48.78;;;24.45;;